createdAt,value
2023-04-29T00:00:47.013Z,75.09
2023-04-29T00:01:47.074Z,75.67
2023-04-29T00:02:47.199Z,75.47
2023-04-29T00:04:47.265Z,75.37
2023-04-29T00:05:47.305Z,75.18
2023-04-29T00:06:47.481Z,75.57
2023-04-29T00:07:47.212Z,75.09
2023-04-29T00:08:47.231Z,75.67
2023-04-29T00:09:47.269Z,75.18
2023-04-29T00:10:47.317Z,75.18
2023-04-29T00:11:47.314Z,75.47
2023-04-29T00:12:47.358Z,75.57
2023-04-29T00:13:47.673Z,75.85
2023-04-29T00:14:47.409Z,75.37
2023-04-29T00:15:47.431Z,75.37
2023-04-29T00:16:47.487Z,75.95
2023-04-29T00:17:47.490Z,75.67
2023-04-29T00:18:47.519Z,75.47
2023-04-29T00:19:47.844Z,75.76
2023-04-29T00:20:47.574Z,75.57
2023-04-29T00:21:47.607Z,75.85
2023-04-29T00:22:47.621Z,75.67
2023-04-29T00:23:47.646Z,75.92
2023-04-29T00:24:47.706Z,75.57
2023-04-29T00:25:48.006Z,75.53
2023-04-29T00:26:47.737Z,75.62
2023-04-29T00:27:47.757Z,75.67
2023-04-29T00:28:47.805Z,75.18
2023-04-29T00:29:47.813Z,75.05
2023-04-29T00:30:47.902Z,75.43
2023-04-29T00:31:48.167Z,75.85
2023-04-29T00:32:47.914Z,76.30
2023-04-29T00:33:47.926Z,75.43
2023-04-29T00:34:47.955Z,75.53
2023-04-29T00:35:47.993Z,75.62
2023-04-29T00:36:48.010Z,75.57
2023-04-29T00:37:48.034Z,75.34
2023-04-29T00:38:48.317Z,75.37
2023-04-29T00:39:48.092Z,75.18
2023-04-29T00:40:48.125Z,75.82
2023-04-29T00:42:48.175Z,75.95
2023-04-29T00:43:48.205Z,76.34
2023-04-29T00:44:48.324Z,76.59
2023-04-29T00:45:48.674Z,75.85
2023-04-29T00:46:48.328Z,76.40
2023-04-29T00:47:48.354Z,75.76
2023-04-29T00:48:48.356Z,76.34
2023-04-29T00:49:48.365Z,75.82
2023-04-29T00:50:48.402Z,76.50
2023-04-29T00:51:48.427Z,76.50
2023-04-29T00:52:48.752Z,76.05
2023-04-29T00:53:49.720Z,76.53
2023-04-29T00:54:48.506Z,76.20
2023-04-29T00:55:48.542Z,76.30
2023-04-29T00:56:48.565Z,76.15
2023-04-29T00:57:48.604Z,75.57
2023-04-29T00:58:48.629Z,76.30
2023-04-29T00:59:48.946Z,76.10
2023-04-29T01:00:48.699Z,76.50
2023-04-29T01:02:48.848Z,76.82
2023-04-29T01:03:48.983Z,75.72
2023-04-29T01:04:48.897Z,76.50
2023-04-29T01:05:48.814Z,75.62
2023-04-29T01:06:49.143Z,75.34
2023-04-29T01:07:48.886Z,75.53
2023-04-29T01:08:48.899Z,75.62
2023-04-29T01:09:48.927Z,75.53
2023-04-29T01:10:48.954Z,75.82
2023-04-29T01:11:48.977Z,75.43
2023-04-29T01:12:49.006Z,74.85
2023-04-29T01:13:49.333Z,75.34
2023-04-29T01:14:49.061Z,75.53
2023-04-29T01:15:49.128Z,75.53
2023-04-29T01:16:49.135Z,75.92
2023-04-29T01:17:49.168Z,75.72
2023-04-29T01:18:49.190Z,75.14
2023-04-29T01:19:49.231Z,75.72
2023-04-29T01:20:49.526Z,75.53
2023-04-29T01:21:49.255Z,75.05
2023-04-29T01:22:49.291Z,75.24
2023-04-29T01:23:49.318Z,75.72
2023-04-29T01:24:49.353Z,75.34
2023-04-29T01:25:49.365Z,75.43
2023-04-29T01:26:49.395Z,74.76
2023-04-29T01:27:49.724Z,75.14
2023-04-29T01:28:49.449Z,75.72
2023-04-29T01:30:49.510Z,74.85
2023-04-29T01:31:49.653Z,75.24
2023-04-29T01:32:49.724Z,75.34
2023-04-29T01:33:49.631Z,75.24
2023-04-29T01:34:49.951Z,75.82
2023-04-29T01:35:49.650Z,75.82
2023-04-29T01:36:49.669Z,76.20
2023-04-29T01:37:49.697Z,75.53
2023-04-29T01:38:49.745Z,76.50
2023-04-29T01:39:49.867Z,75.34
2023-04-29T01:40:49.833Z,75.53
2023-04-29T01:41:50.111Z,76.01
2023-04-29T01:42:49.834Z,75.62
2023-04-29T01:43:49.860Z,76.01
2023-04-29T01:44:49.904Z,75.72
2023-04-29T01:45:49.917Z,76.01
2023-04-29T01:46:49.970Z,75.53
2023-04-29T01:47:50.012Z,76.50
2023-04-29T01:48:50.320Z,76.30
2023-04-29T01:49:50.074Z,76.59
2023-04-29T01:50:50.064Z,76.30
2023-04-29T01:51:50.102Z,75.82
2023-04-29T01:52:50.112Z,76.20
2023-04-29T01:53:50.150Z,76.01
2023-04-29T01:55:50.508Z,76.30
2023-04-29T01:56:50.215Z,76.50
2023-04-29T01:57:50.250Z,75.72
2023-04-29T01:58:50.277Z,75.97
2023-04-29T01:59:50.420Z,76.07
2023-04-29T02:00:50.436Z,75.78
2023-04-29T02:01:50.363Z,75.59
2023-04-29T02:02:50.745Z,75.59
2023-04-29T02:03:50.581Z,76.26
2023-04-29T02:04:50.527Z,75.59
2023-04-29T02:05:50.549Z,76.50
2023-04-29T02:06:50.493Z,76.26
2023-04-29T02:07:50.526Z,76.26
2023-04-29T02:08:50.548Z,75.97
2023-04-29T02:09:51.252Z,76.40
2023-04-29T02:10:50.617Z,76.17
2023-04-29T02:11:50.637Z,76.26
2023-04-29T02:12:50.678Z,76.88
2023-04-29T02:13:50.694Z,76.75
2023-04-29T02:14:50.716Z,76.26
2023-04-29T02:15:51.045Z,76.17
2023-04-29T02:16:50.980Z,76.93
2023-04-29T02:17:50.810Z,76.65
2023-04-29T02:19:51.132Z,77.51
2023-04-29T02:20:50.910Z,77.23
2023-04-29T02:21:51.160Z,77.33
2023-04-29T02:22:50.936Z,77.90
2023-04-29T02:23:50.964Z,77.75
2023-04-29T02:24:50.997Z,77.42
2023-04-29T02:25:51.039Z,77.13
2023-04-29T02:26:51.057Z,77.33
2023-04-29T02:27:51.384Z,77.81
2023-04-29T02:28:51.121Z,77.36
2023-04-29T02:30:51.161Z,78.09
2023-04-29T02:31:51.261Z,77.42
2023-04-29T02:32:51.268Z,77.33
2023-04-29T02:33:51.248Z,77.33
2023-04-29T02:34:51.571Z,77.90
2023-04-29T02:35:51.299Z,77.81
2023-04-29T02:36:51.341Z,77.13
2023-04-29T02:37:51.353Z,78.19
2023-04-29T02:38:51.399Z,77.71
2023-04-29T02:39:51.601Z,77.13
2023-04-29T02:40:51.435Z,77.81
2023-04-29T02:41:51.785Z,77.71
2023-04-29T02:42:51.497Z,77.71
2023-04-29T02:43:51.529Z,77.42
2023-04-29T02:44:51.552Z,77.90
2023-04-29T02:45:51.625Z,77.51
2023-04-29T02:46:51.598Z,77.33
2023-04-29T02:47:51.719Z,77.71
2023-04-29T02:48:51.961Z,77.81
2023-04-29T02:49:51.937Z,77.33
2023-04-29T02:50:51.764Z,77.23
2023-04-29T02:51:51.842Z,77.51
2023-04-29T02:52:51.794Z,77.42
2023-04-29T02:53:51.793Z,77.61
2023-04-29T02:54:51.814Z,77.23
2023-04-29T02:55:52.150Z,77.90
2023-04-29T02:56:51.873Z,78.00
2023-04-29T02:57:51.904Z,77.23
2023-04-29T02:58:51.943Z,77.23
2023-04-29T02:59:52.119Z,77.13
2023-04-29T03:00:52.007Z,77.23
2023-04-29T03:01:52.014Z,77.71
2023-04-29T03:02:52.476Z,77.33
2023-04-29T03:03:52.402Z,77.71
2023-04-29T03:04:52.143Z,77.13
2023-04-29T03:05:52.144Z,77.51
2023-04-29T03:06:52.149Z,77.23
2023-04-29T03:07:52.202Z,77.42
2023-04-29T03:08:52.219Z,77.42
2023-04-29T03:09:52.724Z,77.51
2023-04-29T03:10:52.272Z,77.23
2023-04-29T03:11:52.298Z,77.23
2023-04-29T03:12:52.429Z,77.33
2023-04-29T03:13:52.367Z,77.23
2023-04-29T03:14:52.384Z,77.51
2023-04-29T03:15:52.421Z,77.51
2023-04-29T03:16:52.787Z,77.23
2023-04-29T03:17:52.515Z,77.23
2023-04-29T03:19:52.759Z,77.42
2023-04-29T03:20:52.573Z,77.81
2023-04-29T03:21:53.907Z,77.33
2023-04-29T03:22:52.591Z,77.90
2023-04-29T03:24:52.671Z,77.81
2023-04-29T03:25:52.723Z,77.71
2023-04-29T03:26:52.853Z,77.42
2023-04-29T03:27:52.734Z,77.48
2023-04-29T03:28:52.758Z,77.42
2023-04-29T03:29:52.986Z,77.38
2023-04-29T03:30:53.166Z,77.58
2023-04-29T03:31:52.917Z,77.58
2023-04-29T03:32:52.870Z,77.76
2023-04-29T03:33:52.890Z,77.38
2023-04-29T03:34:52.913Z,77.86
2023-04-29T03:35:52.952Z,77.76
2023-04-29T03:37:53.304Z,77.19
2023-04-29T03:38:53.014Z,77.86
2023-04-29T03:39:53.384Z,77.86
2023-04-29T03:40:53.235Z,77.33
2023-04-29T03:41:53.106Z,78.06
2023-04-29T03:42:53.127Z,78.09
2023-04-29T03:43:53.156Z,78.15
2023-04-29T03:44:53.518Z,77.76
2023-04-29T03:45:53.259Z,78.06
2023-04-29T03:46:53.442Z,78.44
2023-04-29T03:48:53.293Z,78.54
2023-04-29T03:49:53.708Z,78.34
2023-04-29T03:50:53.353Z,77.86
2023-04-29T03:51:54.211Z,77.58
2023-04-29T03:52:53.459Z,77.67
2023-04-29T03:53:53.438Z,77.76
2023-04-29T03:54:53.535Z,78.25
2023-04-29T03:55:53.641Z,78.25
2023-04-29T03:56:55.037Z,77.76
2023-04-29T03:57:53.649Z,78.06
2023-04-29T03:58:53.862Z,78.44
2023-04-29T04:00:53.619Z,78.92
2023-04-29T04:01:53.708Z,79.11
2023-04-29T04:02:53.784Z,79.41
2023-04-29T04:03:53.756Z,79.31
2023-04-29T04:04:53.857Z,79.11
2023-04-29T04:05:54.084Z,79.31
2023-04-29T04:06:53.777Z,79.50
2023-04-29T04:08:53.823Z,78.73
2023-04-29T04:09:54.475Z,78.44
2023-04-29T04:10:53.880Z,78.63
2023-04-29T04:11:54.214Z,78.73
2023-04-29T04:12:53.963Z,79.02
2023-04-29T04:13:53.985Z,79.69
2023-04-29T04:15:54.078Z,78.34
2023-04-29T04:16:54.115Z,79.02
2023-04-29T04:17:54.416Z,78.06
2023-04-29T04:18:54.120Z,79.50
2023-04-29T04:19:54.449Z,78.73
2023-04-29T04:20:54.206Z,79.60
2023-04-29T04:21:54.177Z,79.50
2023-04-29T04:22:54.211Z,78.83
2023-04-29T04:24:54.563Z,78.34
2023-04-29T04:25:54.282Z,79.02
2023-04-29T04:26:54.332Z,79.60
2023-04-29T04:27:54.357Z,78.83
2023-04-29T04:28:54.397Z,79.02
2023-04-29T04:29:54.506Z,78.34
2023-04-29T04:30:54.735Z,78.34
2023-04-29T04:31:54.588Z,78.54
2023-04-29T04:32:54.508Z,78.54
2023-04-29T04:34:54.571Z,78.92
2023-04-29T04:35:54.556Z,79.41
2023-04-29T04:36:54.785Z,78.83
2023-04-29T04:37:54.923Z,78.54
2023-04-29T04:38:54.644Z,79.11
2023-04-29T04:39:54.857Z,78.92
2023-04-29T04:40:54.799Z,78.73
2023-04-29T04:41:54.740Z,79.02
2023-04-29T04:42:55.275Z,78.83
2023-04-29T04:43:54.787Z,78.44
2023-04-29T04:45:54.894Z,79.02
2023-04-29T04:46:54.856Z,78.34
2023-04-29T04:47:55.121Z,78.63
2023-04-29T04:48:54.913Z,78.92
2023-04-29T04:49:55.273Z,79.11
2023-04-29T04:50:54.975Z,78.73
2023-04-29T04:51:55.298Z,78.83
2023-04-29T04:52:55.030Z,78.34
2023-04-29T04:53:55.054Z,78.54
2023-04-29T04:54:55.080Z,79.02
2023-04-29T04:55:55.102Z,79.41
2023-04-29T04:56:55.135Z,79.02
2023-04-29T04:57:55.164Z,79.89
2023-04-29T04:58:55.429Z,79.69
2023-04-29T04:59:55.212Z,80.18
2023-04-29T05:00:55.339Z,79.98
2023-04-29T05:01:55.306Z,79.50
2023-04-29T05:02:55.437Z,79.11
2023-04-29T05:04:55.348Z,78.92
2023-04-29T05:05:55.671Z,79.50
2023-04-29T05:06:55.414Z,79.89
2023-04-29T05:07:55.486Z,79.60
2023-04-29T05:08:55.564Z,79.02
2023-04-29T05:09:55.530Z,79.50
2023-04-29T05:10:55.529Z,79.69
2023-04-29T05:11:55.544Z,79.50
2023-04-29T05:12:55.873Z,79.21
2023-04-29T05:13:55.744Z,79.69
2023-04-29T05:14:55.661Z,78.83
2023-04-29T05:15:55.663Z,79.79
2023-04-29T05:16:55.691Z,79.41
2023-04-29T05:18:55.749Z,80.18
2023-04-29T05:19:56.166Z,80.18
2023-04-29T05:20:55.789Z,80.37
2023-04-29T05:21:56.132Z,78.83
2023-04-29T05:22:55.847Z,79.41
2023-04-29T05:23:55.863Z,78.83
2023-04-29T05:24:55.882Z,79.41
2023-04-29T05:25:55.982Z,80.08
2023-04-29T05:26:56.237Z,79.50
2023-04-29T05:27:56.086Z,79.11
2023-04-29T05:28:56.039Z,79.11
2023-04-29T05:29:56.386Z,79.21
2023-04-29T05:30:56.064Z,78.92
2023-04-29T05:31:56.088Z,79.50
2023-04-29T05:32:56.116Z,79.41
2023-04-29T05:33:56.444Z,79.69
2023-04-29T05:34:56.196Z,79.21
2023-04-29T05:35:56.190Z,78.44
2023-04-29T05:37:56.380Z,78.73
2023-04-29T05:38:56.270Z,78.73
2023-04-29T05:39:56.296Z,78.44
2023-04-29T05:40:56.592Z,78.44
2023-04-29T05:41:56.348Z,78.34
2023-04-29T05:42:56.379Z,78.63
2023-04-29T05:43:56.404Z,78.25
2023-04-29T05:44:56.443Z,79.11
2023-04-29T05:45:56.477Z,79.21
2023-04-29T05:46:56.480Z,79.02
2023-04-29T05:47:56.966Z,78.92
2023-04-29T05:48:56.531Z,78.25
2023-04-29T05:49:56.570Z,78.25
2023-04-29T05:50:56.606Z,78.15
2023-04-29T05:51:56.623Z,77.86
2023-04-29T05:52:56.697Z,77.28
2023-04-29T05:53:56.778Z,78.44
2023-04-29T05:54:57.010Z,78.54
2023-04-29T05:55:56.744Z,78.44
2023-04-29T05:56:56.758Z,78.15
2023-04-29T05:57:56.783Z,78.34
2023-04-29T05:58:57.033Z,78.83
2023-04-29T05:59:56.928Z,78.25
2023-04-29T06:00:58.129Z,78.73
2023-04-29T06:01:57.187Z,78.25
2023-04-29T06:02:59.183Z,78.73
2023-04-29T06:03:57.227Z,79.02
2023-04-29T06:04:57.295Z,78.63
2023-04-29T06:05:57.215Z,79.41
2023-04-29T06:06:57.115Z,79.02
2023-04-29T06:07:57.357Z,79.50
2023-04-29T06:08:57.077Z,79.79
2023-04-29T06:09:57.128Z,79.69
2023-04-29T06:10:57.125Z,79.41
2023-04-29T06:11:57.164Z,80.08
2023-04-29T06:12:57.183Z,80.08
2023-04-29T06:13:57.522Z,80.37
2023-04-29T06:14:57.238Z,79.79
2023-04-29T06:15:57.348Z,79.50
2023-04-29T06:16:57.284Z,79.41
2023-04-29T06:18:57.374Z,78.83
2023-04-29T06:19:57.979Z,78.83
2023-04-29T06:20:57.399Z,79.02
2023-04-29T06:21:57.529Z,78.73
2023-04-29T06:22:57.574Z,78.63
2023-04-29T06:23:57.476Z,78.73
2023-04-29T06:24:57.511Z,78.73
2023-04-29T06:25:57.548Z,78.73
2023-04-29T06:26:57.862Z,78.92
2023-04-29T06:27:57.588Z,78.34
2023-04-29T06:28:57.622Z,78.83
2023-04-29T06:29:57.744Z,78.73
2023-04-29T06:30:57.673Z,78.63
2023-04-29T06:31:57.776Z,79.11
2023-04-29T06:32:57.766Z,79.50
2023-04-29T06:33:58.008Z,79.98
2023-04-29T06:34:57.780Z,78.83
2023-04-29T06:35:57.808Z,78.83
2023-04-29T06:36:57.827Z,78.92
2023-04-29T06:37:57.894Z,78.73
2023-04-29T06:38:57.910Z,78.34
2023-04-29T06:39:57.917Z,78.25
2023-04-29T06:40:58.188Z,78.83
2023-04-29T06:41:57.964Z,78.34
2023-04-29T06:42:58.009Z,77.58
2023-04-29T06:43:58.060Z,77.67
2023-04-29T06:44:58.046Z,77.19
2023-04-29T06:45:58.091Z,77.28
2023-04-29T06:46:58.161Z,77.38
2023-04-29T06:47:58.427Z,77.67
2023-04-29T06:48:58.159Z,77.67
2023-04-29T06:49:58.177Z,77.86
2023-04-29T06:50:58.204Z,77.67
2023-04-29T06:51:58.237Z,77.86
2023-04-29T06:52:58.296Z,77.67
2023-04-29T06:53:58.302Z,78.25
2023-04-29T06:54:58.583Z,78.06
2023-04-29T06:55:58.351Z,77.28
2023-04-29T06:56:58.390Z,77.38
2023-04-29T06:57:58.395Z,77.19
2023-04-29T06:58:58.426Z,77.19
2023-04-29T06:59:58.456Z,77.19
2023-04-29T07:00:58.517Z,77.48
2023-04-29T07:01:58.806Z,77.67
2023-04-29T07:03:58.705Z,77.28
2023-04-29T07:04:58.648Z,77.28
2023-04-29T07:05:58.615Z,77.28
2023-04-29T07:06:58.637Z,77.28
2023-04-29T07:07:58.670Z,77.00
2023-04-29T07:08:59.100Z,77.09
2023-04-29T07:09:58.781Z,77.23
2023-04-29T07:10:58.797Z,77.51
2023-04-29T07:11:58.779Z,77.33
2023-04-29T07:12:58.809Z,77.23
2023-04-29T07:13:58.838Z,76.75
2023-04-29T07:14:58.867Z,76.65
2023-04-29T07:15:59.196Z,76.17
2023-04-29T07:16:59.068Z,76.45
2023-04-29T07:18:58.969Z,75.78
2023-04-29T07:19:59.152Z,76.36
2023-04-29T07:21:59.084Z,76.45
2023-04-29T07:23:59.405Z,76.26
2023-04-29T07:24:59.342Z,75.59
2023-04-29T07:25:59.166Z,76.26
2023-04-29T07:26:59.205Z,76.26
2023-04-29T07:27:59.228Z,76.65
2023-04-29T07:28:59.296Z,77.23
2023-04-29T07:29:59.301Z,76.55
2023-04-29T07:30:59.628Z,76.65
2023-04-29T07:31:59.378Z,76.65
2023-04-29T07:33:00.231Z,76.84
2023-04-29T07:33:59.378Z,76.17
2023-04-29T07:34:59.401Z,76.45
2023-04-29T07:35:59.424Z,75.40
2023-04-29T07:36:59.458Z,76.36
2023-04-29T07:37:59.781Z,76.45
2023-04-29T07:38:59.611Z,76.45
2023-04-29T07:39:59.545Z,75.59
2023-04-29T07:40:59.570Z,75.20
2023-04-29T07:41:59.584Z,75.78
2023-04-29T07:42:59.635Z,75.40
2023-04-29T07:43:59.642Z,75.20
2023-04-29T07:44:59.983Z,75.59
2023-04-29T07:45:59.714Z,74.91
2023-04-29T07:46:59.731Z,75.20
2023-04-29T07:47:59.859Z,75.30
2023-04-29T07:48:59.794Z,75.01
2023-04-29T07:49:59.805Z,75.30
2023-04-29T07:50:59.835Z,74.62
2023-04-29T07:52:00.168Z,74.72
2023-04-29T07:52:59.885Z,75.01
2023-04-29T07:53:59.948Z,75.01
2023-04-29T07:54:59.944Z,75.20
2023-04-29T07:55:59.972Z,76.17
2023-04-29T07:57:00.003Z,76.26
2023-04-29T07:58:00.634Z,76.26
2023-04-29T07:59:00.375Z,76.07
2023-04-29T08:00:00.122Z,76.17
2023-04-29T08:02:00.164Z,75.88
2023-04-29T08:04:00.509Z,75.88
2023-04-29T08:05:00.513Z,76.45
2023-04-29T08:07:00.273Z,76.07
2023-04-29T08:08:00.307Z,75.88
2023-04-29T08:09:01.594Z,75.68
2023-04-29T08:10:00.458Z,75.59
2023-04-29T08:11:00.380Z,75.10
2023-04-29T08:12:00.404Z,75.30
2023-04-29T08:13:00.733Z,75.68
2023-04-29T08:14:00.556Z,75.30
2023-04-29T08:15:00.520Z,75.30
2023-04-29T08:16:00.559Z,75.49
2023-04-29T08:17:00.541Z,75.10
2023-04-29T08:18:00.602Z,75.78
2023-04-29T08:19:00.615Z,75.88
2023-04-29T08:20:00.923Z,75.88
2023-04-29T08:21:00.656Z,75.59
2023-04-29T08:22:00.689Z,75.78
2023-04-29T08:24:00.820Z,76.26
2023-04-29T08:25:00.807Z,75.68
2023-04-29T08:26:00.796Z,75.30
2023-04-29T08:27:01.297Z,75.01
2023-04-29T08:28:00.852Z,75.59
2023-04-29T08:29:01.628Z,76.36
2023-04-29T08:30:00.900Z,75.68
2023-04-29T08:31:00.950Z,75.01
2023-04-29T08:32:00.995Z,74.62
2023-04-29T08:33:01.326Z,74.62
2023-04-29T08:34:01.038Z,74.62
2023-04-29T08:35:01.047Z,74.91
2023-04-29T08:36:01.064Z,74.43
2023-04-29T08:37:01.107Z,75.01
2023-04-29T08:38:01.121Z,74.82
2023-04-29T08:39:01.397Z,74.33
2023-04-29T08:40:01.170Z,74.14
2023-04-29T08:42:01.226Z,74.62
2023-04-29T08:43:01.265Z,75.43
2023-04-29T08:44:01.296Z,75.10
2023-04-29T08:45:01.600Z,75.30
2023-04-29T08:46:01.352Z,74.24
2023-04-29T08:47:01.473Z,74.57
2023-04-29T08:48:01.457Z,74.27
2023-04-29T08:49:01.435Z,74.66
2023-04-29T08:50:01.466Z,74.66
2023-04-29T08:51:02.282Z,73.99
2023-04-29T08:52:01.748Z,74.27
2023-04-29T08:53:01.534Z,74.85
2023-04-29T08:54:01.580Z,74.57
2023-04-29T08:55:01.735Z,74.47
2023-04-29T08:56:01.614Z,74.85
2023-04-29T08:57:01.642Z,73.99
2023-04-29T08:58:01.678Z,74.27
2023-04-29T08:59:02.013Z,73.69
2023-04-29T09:00:01.724Z,74.18
2023-04-29T09:01:01.790Z,74.27
2023-04-29T09:02:01.789Z,74.18
2023-04-29T09:03:01.957Z,73.50
2023-04-29T09:04:01.935Z,73.69
2023-04-29T09:05:01.941Z,73.99
2023-04-29T09:06:01.894Z,74.37
2023-04-29T09:07:01.922Z,73.41
2023-04-29T09:08:01.940Z,73.41
2023-04-29T09:09:01.976Z,73.69
2023-04-29T09:10:02.028Z,73.41
2023-04-29T09:11:02.043Z,73.79
2023-04-29T09:12:02.369Z,73.89
2023-04-29T09:13:02.086Z,74.47
2023-04-29T09:14:02.104Z,74.08
2023-04-29T09:16:02.195Z,74.37
2023-04-29T09:17:02.221Z,75.34
2023-04-29T09:18:02.302Z,74.37
2023-04-29T09:19:02.567Z,73.95
2023-04-29T09:20:02.300Z,74.37
2023-04-29T09:21:02.319Z,74.52
2023-04-29T09:22:02.339Z,74.72
2023-04-29T09:23:02.366Z,74.82
2023-04-29T09:25:02.807Z,75.20
2023-04-29T09:26:02.441Z,74.24
2023-04-29T09:27:02.491Z,74.33
2023-04-29T09:28:02.497Z,74.91
2023-04-29T09:30:02.548Z,74.62
2023-04-29T09:31:02.885Z,75.20
2023-04-29T09:32:02.652Z,74.33
2023-04-29T09:33:02.646Z,74.52
2023-04-29T09:34:02.663Z,74.52
2023-04-29T09:35:02.714Z,75.20
2023-04-29T09:37:03.069Z,74.27
2023-04-29T09:38:02.769Z,74.47
2023-04-29T09:39:02.801Z,74.52
2023-04-29T09:40:02.834Z,74.62
2023-04-29T09:41:02.850Z,74.52
2023-04-29T09:42:02.988Z,74.66
2023-04-29T09:43:03.208Z,74.43
2023-04-29T09:44:02.942Z,74.24
2023-04-29T09:45:02.961Z,74.52
2023-04-29T09:46:03.040Z,74.33
2023-04-29T09:47:03.295Z,74.76
2023-04-29T09:48:03.115Z,74.72
2023-04-29T09:49:03.072Z,73.95
2023-04-29T09:50:03.707Z,74.62
2023-04-29T09:52:03.188Z,74.52
2023-04-29T09:53:03.192Z,75.01
2023-04-29T09:54:03.207Z,75.10
2023-04-29T09:55:03.234Z,74.91
2023-04-29T09:56:03.270Z,75.59
2023-04-29T09:57:03.551Z,75.68
2023-04-29T09:58:03.326Z,75.49
2023-04-29T09:59:03.347Z,75.68
2023-04-29T10:00:03.390Z,76.10
2023-04-29T10:01:03.509Z,75.68
2023-04-29T10:02:03.528Z,75.59
2023-04-29T10:03:03.603Z,75.53
2023-04-29T10:04:03.790Z,75.59
2023-04-29T10:05:03.568Z,75.30
2023-04-29T10:06:03.550Z,74.91
2023-04-29T10:07:03.583Z,75.01
2023-04-29T10:08:03.623Z,74.82
2023-04-29T10:09:03.647Z,75.10
2023-04-29T10:10:03.655Z,75.20
2023-04-29T10:11:03.977Z,74.05
2023-04-29T10:12:03.704Z,73.95
2023-04-29T10:13:03.734Z,73.75
2023-04-29T10:14:03.762Z,74.62
2023-04-29T10:15:03.790Z,75.01
2023-04-29T10:16:05.069Z,74.91
2023-04-29T10:17:03.859Z,75.01
2023-04-29T10:18:04.167Z,75.88
2023-04-29T10:19:03.916Z,75.68
2023-04-29T10:20:03.935Z,75.49
2023-04-29T10:21:04.066Z,75.78
2023-04-29T10:22:03.979Z,75.78
2023-04-29T10:23:04.012Z,75.78
2023-04-29T10:24:04.057Z,75.68
2023-04-29T10:25:04.366Z,75.30
2023-04-29T10:27:04.115Z,75.30
2023-04-29T10:28:04.139Z,75.78
2023-04-29T10:29:04.173Z,76.26
2023-04-29T10:31:04.587Z,76.26
2023-04-29T10:32:04.253Z,76.36
2023-04-29T10:33:04.336Z,76.26
2023-04-29T10:34:04.314Z,76.26
2023-04-29T10:35:04.335Z,76.45
2023-04-29T10:36:04.366Z,76.26
2023-04-29T10:37:04.393Z,76.36
2023-04-29T10:38:04.728Z,76.26
2023-04-29T10:39:04.461Z,76.26
2023-04-29T10:40:04.492Z,76.17
2023-04-29T10:41:04.499Z,76.07
2023-04-29T10:42:04.534Z,76.17
2023-04-29T10:43:04.598Z,76.17
2023-04-29T10:44:04.809Z,76.26
2023-04-29T10:46:04.669Z,75.88
2023-04-29T10:47:04.734Z,76.07
2023-04-29T10:50:04.760Z,76.36
2023-04-29T10:51:04.776Z,76.36
2023-04-29T10:52:05.103Z,76.26
2023-04-29T10:53:04.945Z,76.36
2023-04-29T10:54:05.568Z,76.26
2023-04-29T10:56:04.938Z,76.26
2023-04-29T10:57:04.939Z,76.07
2023-04-29T10:58:05.274Z,76.17
2023-04-29T10:59:04.995Z,75.68
2023-04-29T11:00:05.035Z,75.88
2023-04-29T11:01:05.167Z,76.26
2023-04-29T11:02:05.083Z,76.36
2023-04-29T11:03:05.220Z,76.36
2023-04-29T11:04:05.549Z,75.97
2023-04-29T11:05:05.161Z,75.49
2023-04-29T11:06:05.300Z,75.78
2023-04-29T11:08:05.257Z,75.78
2023-04-29T11:09:05.294Z,75.49
2023-04-29T11:10:05.602Z,75.97
2023-04-29T11:11:05.348Z,75.88
2023-04-29T11:12:05.511Z,75.59
2023-04-29T11:13:05.395Z,74.82
2023-04-29T11:14:05.409Z,75.59
2023-04-29T11:15:05.483Z,75.40
2023-04-29T11:16:05.543Z,75.34
2023-04-29T11:17:05.806Z,74.72
2023-04-29T11:18:05.592Z,75.01
2023-04-29T11:19:05.599Z,75.49
2023-04-29T11:20:05.596Z,75.10
2023-04-29T11:21:05.613Z,75.05
2023-04-29T11:22:05.647Z,74.85
2023-04-29T11:23:05.675Z,75.20
2023-04-29T11:24:06.027Z,75.53
2023-04-29T11:25:05.723Z,75.53
2023-04-29T11:26:05.752Z,75.43
2023-04-29T11:27:05.779Z,75.30
2023-04-29T11:28:05.819Z,75.78
2023-04-29T11:29:05.852Z,75.49
2023-04-29T11:30:05.864Z,75.62
2023-04-29T11:31:05.920Z,75.49
2023-04-29T11:32:06.034Z,75.30
2023-04-29T11:33:06.071Z,75.59
2023-04-29T11:34:06.068Z,75.34
2023-04-29T11:35:06.007Z,74.95
2023-04-29T11:36:06.022Z,75.10
2023-04-29T11:37:06.361Z,75.34
2023-04-29T11:38:06.096Z,74.66
2023-04-29T11:39:06.420Z,75.24
2023-04-29T11:40:06.152Z,75.14
2023-04-29T11:41:06.170Z,75.34
2023-04-29T11:43:06.216Z,75.14
2023-04-29T11:45:06.299Z,75.24
2023-04-29T11:46:06.362Z,74.85
2023-04-29T11:47:06.330Z,75.05
2023-04-29T11:48:06.485Z,74.79
2023-04-29T11:49:06.402Z,74.37
2023-04-29T11:50:06.637Z,74.85
2023-04-29T11:51:06.694Z,73.89
2023-04-29T11:52:06.468Z,74.12
2023-04-29T11:53:06.545Z,74.12
2023-04-29T11:54:08.229Z,74.31
2023-04-29T11:55:06.578Z,74.02
2023-04-29T11:56:06.576Z,74.21
2023-04-29T11:57:06.607Z,74.12
2023-04-29T11:58:06.899Z,74.21
2023-04-29T11:59:06.663Z,74.21
2023-04-29T12:00:09.128Z,74.21
2023-04-29T12:01:06.777Z,74.12
2023-04-29T12:03:06.958Z,73.73
2023-04-29T12:04:06.974Z,74.02
2023-04-29T12:05:07.560Z,73.25
2023-04-29T12:06:08.436Z,74.02
2023-04-29T12:08:06.941Z,73.09
2023-04-29T12:09:07.054Z,73.77
2023-04-29T12:10:06.978Z,73.25
2023-04-29T12:11:07.018Z,73.25
2023-04-29T12:12:08.123Z,72.96
2023-04-29T12:13:08.980Z,72.77
2023-04-29T12:14:07.103Z,73.06
2023-04-29T12:15:07.136Z,73.15
2023-04-29T12:16:07.186Z,73.00
2023-04-29T12:17:07.190Z,72.90
2023-04-29T12:18:07.240Z,73.28
2023-04-29T12:19:07.529Z,72.86
2023-04-29T12:20:07.251Z,73.00
2023-04-29T12:21:07.303Z,73.19
2023-04-29T12:23:07.360Z,72.61
2023-04-29T12:24:07.383Z,73.00
2023-04-29T12:25:07.843Z,72.90
2023-04-29T12:26:07.423Z,72.61
2023-04-29T12:27:07.454Z,72.32
2023-04-29T12:28:08.602Z,72.32
2023-04-29T12:29:07.529Z,72.22
2023-04-29T12:30:07.538Z,72.22
2023-04-29T12:31:07.980Z,72.13
2023-04-29T12:32:07.602Z,72.52
2023-04-29T12:33:07.723Z,72.42
2023-04-29T12:34:09.836Z,72.80
2023-04-29T12:35:07.688Z,72.52
2023-04-29T12:36:07.717Z,72.71
2023-04-29T12:37:08.038Z,72.42
2023-04-29T12:38:07.767Z,72.22
2023-04-29T12:39:07.797Z,72.42
2023-04-29T12:40:07.827Z,72.22
2023-04-29T12:41:07.857Z,72.42
2023-04-29T12:42:07.882Z,72.52
2023-04-29T12:43:07.902Z,72.45
2023-04-29T12:44:08.229Z,72.22
2023-04-29T12:45:08.104Z,72.32
2023-04-29T12:47:08.045Z,72.36
2023-04-29T12:48:12.355Z,71.97
2023-04-29T12:49:08.096Z,71.78
2023-04-29T12:50:08.106Z,71.97
2023-04-29T12:51:08.436Z,72.06
2023-04-29T12:52:08.166Z,72.26
2023-04-29T12:53:08.207Z,71.88
2023-04-29T12:54:08.229Z,71.88
2023-04-29T12:55:08.252Z,71.88
2023-04-29T12:57:08.509Z,71.58
2023-04-29T12:58:08.342Z,71.88
2023-04-29T12:59:08.382Z,71.58
2023-04-29T13:01:08.490Z,71.78
2023-04-29T13:02:08.520Z,71.58
2023-04-29T13:03:08.698Z,71.30
2023-04-29T13:04:08.997Z,71.30
2023-04-29T13:05:08.586Z,70.90
2023-04-29T13:06:08.573Z,71.20
2023-04-29T13:07:09.201Z,71.20
2023-04-29T13:08:08.656Z,71.30
2023-04-29T13:09:08.706Z,71.20
2023-04-29T13:10:08.747Z,71.20
2023-04-29T13:11:08.966Z,71.10
2023-04-29T13:12:08.739Z,71.30
2023-04-29T13:13:08.771Z,70.36
2023-04-29T13:14:08.795Z,70.65
2023-04-29T13:15:08.829Z,70.75
2023-04-29T13:16:08.937Z,70.65
2023-04-29T13:17:08.962Z,70.65
2023-04-29T13:18:09.227Z,70.46
2023-04-29T13:19:24.698Z,70.65
2023-04-29T13:20:10.699Z,70.75
2023-04-29T13:21:09.029Z,70.75
2023-04-29T13:22:09.029Z,70.94
2023-04-29T13:23:09.184Z,70.75
2023-04-29T13:25:09.120Z,70.84
2023-04-29T13:26:09.406Z,70.94
2023-04-29T13:27:09.180Z,70.65
2023-04-29T13:28:09.222Z,70.75
2023-04-29T13:29:09.245Z,70.46
2023-04-29T13:30:09.264Z,70.46
2023-04-29T13:31:09.347Z,70.56
2023-04-29T13:32:09.482Z,70.56
2023-04-29T13:35:09.405Z,70.84
2023-04-29T13:36:09.437Z,70.56
2023-04-29T13:37:09.672Z,70.65
2023-04-29T13:38:09.524Z,70.56
2023-04-29T13:39:09.665Z,70.46
2023-04-29T13:41:15.417Z,70.56
2023-04-29T13:42:09.876Z,70.56
2023-04-29T13:43:10.668Z,70.84
2023-04-29T13:44:23.745Z,70.75
2023-04-29T13:45:10.664Z,70.46
2023-04-29T13:46:09.770Z,70.46
2023-04-29T13:47:10.703Z,70.46